createdAt,value
2018-01-10T00:00:53.954Z,1029.43
2018-01-10T00:01:53.938Z,1029.46
2018-01-10T00:02:53.923Z,1029.53
2018-01-10T00:03:53.912Z,1029.57
2018-01-10T00:04:53.894Z,1029.53
2018-01-10T00:05:53.880Z,1029.43
2018-01-10T00:06:53.865Z,1029.38
2018-01-10T00:07:53.851Z,1029.35
2018-01-10T00:08:53.896Z,1029.34
2018-01-10T00:09:53.827Z,1029.33
2018-01-10T00:10:53.813Z,1029.25
2018-01-10T00:11:53.797Z,1029.18
2018-01-10T00:12:53.785Z,1029.23
2018-01-10T00:13:53.774Z,1029.31
2018-01-10T00:14:53.754Z,1029.41
2018-01-10T00:15:53.745Z,1029.51
2018-01-10T00:16:53.730Z,1029.53
2018-01-10T00:17:53.715Z,1029.63
2018-01-10T00:18:53.702Z,1029.57
2018-01-10T00:19:53.685Z,1029.66
2018-01-10T00:20:53.674Z,1029.58
2018-01-10T00:21:53.660Z,1029.54
2018-01-10T00:22:53.643Z,1029.48
2018-01-10T00:23:53.631Z,1029.39
2018-01-10T00:24:53.619Z,1029.25
2018-01-10T00:25:53.610Z,1029.26
2018-01-10T00:26:53.590Z,1029.25
2018-01-10T00:27:53.574Z,1029.32
2018-01-10T00:28:53.564Z,1029.33
2018-01-10T00:29:53.562Z,1029.45
2018-01-10T00:30:53.532Z,1029.57
2018-01-10T00:31:53.521Z,1029.63
2018-01-10T00:32:53.504Z,1029.66
2018-01-10T00:33:53.491Z,1029.74
2018-01-10T00:34:53.480Z,1029.71
2018-01-10T00:35:53.465Z,1029.7
2018-01-10T00:36:53.449Z,1029.57
2018-01-10T00:37:53.436Z,1029.49
2018-01-10T00:38:53.421Z,1029.4
2018-01-10T00:39:53.407Z,1029.4
2018-01-10T00:40:53.395Z,1029.38
2018-01-10T00:41:53.379Z,1029.39
2018-01-10T00:42:53.369Z,1029.33
2018-01-10T00:43:53.354Z,1029.34
2018-01-10T00:44:53.341Z,1029.4
2018-01-10T00:45:53.324Z,1029.44
2018-01-10T00:46:53.314Z,1029.52
2018-01-10T00:47:53.308Z,1029.59
2018-01-10T00:48:53.282Z,1029.65
2018-01-10T00:49:53.268Z,1029.69
2018-01-10T00:50:53.259Z,1029.67
2018-01-10T00:51:53.244Z,1029.62
2018-01-10T00:52:53.227Z,1029.55
2018-01-10T00:53:53.228Z,1029.49
2018-01-10T00:54:53.198Z,1029.48
2018-01-10T00:55:53.187Z,1029.47
2018-01-10T00:56:53.171Z,1029.43
2018-01-10T00:57:53.160Z,1029.42
2018-01-10T00:58:53.142Z,1029.37
2018-01-10T00:59:53.131Z,1029.33
2018-01-10T01:00:53.115Z,1029.38
2018-01-10T01:01:53.100Z,1029.36
2018-01-10T01:02:53.087Z,1029.34
2018-01-10T01:03:53.073Z,1029.28
2018-01-10T01:04:53.059Z,1029.21
2018-01-10T01:05:53.044Z,1029.18
2018-01-10T01:06:53.032Z,1029.19
2018-01-10T01:07:53.020Z,1029.18
2018-01-10T01:08:53.003Z,1029.16
2018-01-10T01:09:52.988Z,1029.17
2018-01-10T01:10:52.974Z,1029.26
2018-01-10T01:11:52.961Z,1029.25
2018-01-10T01:12:52.954Z,1029.3
2018-01-10T01:13:52.935Z,1029.37
2018-01-10T01:14:52.918Z,1029.41
2018-01-10T01:15:52.904Z,1029.5
2018-01-10T01:16:52.890Z,1029.53
2018-01-10T01:17:52.875Z,1029.59
2018-01-10T01:18:52.862Z,1029.6
2018-01-10T01:19:52.851Z,1029.62
2018-01-10T01:20:52.834Z,1029.63
2018-01-10T01:21:52.819Z,1029.62
2018-01-10T01:22:52.808Z,1029.63
2018-01-10T01:23:52.790Z,1029.64
2018-01-10T01:24:52.777Z,1029.69
2018-01-10T01:25:52.763Z,1029.76
2018-01-10T01:26:52.749Z,1029.86
2018-01-10T01:27:52.734Z,1029.92
2018-01-10T01:28:52.720Z,1030
2018-01-10T01:29:52.706Z,1030.04
2018-01-10T01:30:52.695Z,1030.1
2018-01-10T01:31:52.690Z,1030.07
2018-01-10T01:32:52.663Z,1030.14
2018-01-10T01:33:52.648Z,1030.11
2018-01-10T01:34:52.634Z,1030.12
2018-01-10T01:35:52.623Z,1030.13
2018-01-10T01:36:52.605Z,1030.12
2018-01-10T01:37:52.591Z,1030.13
2018-01-10T01:38:52.578Z,1030.12
2018-01-10T01:39:52.562Z,1030.17
2018-01-10T01:40:52.550Z,1030.16
2018-01-10T01:41:52.533Z,1030.19
2018-01-10T01:42:52.518Z,1030.13
2018-01-10T01:43:52.509Z,1030.17
2018-01-10T01:44:52.491Z,1030.12
2018-01-10T01:45:52.476Z,1030.16
2018-01-10T01:46:52.462Z,1030.06
2018-01-10T01:47:52.446Z,1030.11
2018-01-10T01:48:52.431Z,1030.05
2018-01-10T01:49:52.416Z,1030.06
2018-01-10T01:50:52.404Z,1030.05
2018-01-10T01:51:52.387Z,1030.07
2018-01-10T01:52:52.372Z,1030.08
2018-01-10T01:53:52.358Z,1030.11
2018-01-10T01:54:52.344Z,1030.11
2018-01-10T01:55:52.328Z,1030.12
2018-01-10T01:56:52.314Z,1030.07
2018-01-10T01:57:52.300Z,1030.03
2018-01-10T01:58:52.284Z,1030.05
2018-01-10T01:59:52.277Z,1030.05
2018-01-10T02:00:52.261Z,1030.02
2018-01-10T02:01:52.241Z,1029.95
2018-01-10T02:02:52.226Z,1029.92
2018-01-10T02:03:52.211Z,1029.91
2018-01-10T02:04:52.198Z,1029.89
2018-01-10T02:05:52.181Z,1029.87
2018-01-10T02:06:52.167Z,1029.86
2018-01-10T02:07:52.151Z,1029.87
2018-01-10T02:08:52.141Z,1029.86
2018-01-10T02:09:52.126Z,1029.86
2018-01-10T02:10:52.112Z,1029.89
2018-01-10T02:11:52.096Z,1029.86
2018-01-10T02:12:52.079Z,1029.86
2018-01-10T02:13:52.069Z,1029.82
2018-01-10T02:14:52.050Z,1029.81
2018-01-10T02:15:52.039Z,1029.77
2018-01-10T02:16:52.024Z,1029.81
2018-01-10T02:17:52.008Z,1029.79
2018-01-10T02:18:51.992Z,1029.78
2018-01-10T02:19:51.980Z,1029.77
2018-01-10T02:20:51.962Z,1029.81
2018-01-10T02:21:51.949Z,1029.82
2018-01-10T02:22:51.934Z,1029.8
2018-01-10T02:23:51.921Z,1029.78
2018-01-10T02:24:51.904Z,1029.75
2018-01-10T02:25:51.894Z,1029.79
2018-01-10T02:26:51.877Z,1029.8
2018-01-10T02:27:51.860Z,1029.81
2018-01-10T02:28:51.849Z,1029.84
2018-01-10T02:29:51.830Z,1029.86
2018-01-10T02:30:51.820Z,1029.89
2018-01-10T02:31:51.804Z,1029.83
2018-01-10T02:32:51.791Z,1029.82
2018-01-10T02:33:51.774Z,1029.8
2018-01-10T02:34:51.758Z,1029.79
2018-01-10T02:35:51.743Z,1029.82
2018-01-10T02:36:51.728Z,1029.83
2018-01-10T02:37:51.716Z,1029.8
2018-01-10T02:38:51.700Z,1029.85
2018-01-10T02:39:51.685Z,1029.8
2018-01-10T02:40:51.670Z,1029.8
2018-01-10T02:41:51.657Z,1029.9
2018-01-10T02:42:51.648Z,1029.91
2018-01-10T02:43:51.628Z,1029.95
2018-01-10T02:44:51.611Z,1029.95
2018-01-10T02:45:51.597Z,1029.9
2018-01-10T02:46:51.586Z,1029.91
2018-01-10T02:47:51.570Z,1029.85
2018-01-10T02:48:51.553Z,1029.86
2018-01-10T02:49:51.540Z,1029.85
2018-01-10T02:50:51.530Z,1029.88
2018-01-10T02:51:51.511Z,1029.83
2018-01-10T02:52:51.494Z,1029.87
2018-01-10T02:53:51.484Z,1029.87
2018-01-10T02:54:51.473Z,1029.84
2018-01-10T02:55:51.450Z,1029.8
2018-01-10T02:56:51.437Z,1029.77
2018-01-10T02:57:51.422Z,1029.73
2018-01-10T02:58:51.406Z,1029.63
2018-01-10T02:59:51.393Z,1029.62
2018-01-10T03:00:51.380Z,1029.62
2018-01-10T03:01:51.383Z,1029.55
2018-01-10T03:02:51.351Z,1029.49
2018-01-10T03:03:51.334Z,1029.47
2018-01-10T03:04:51.323Z,1029.44
2018-01-10T03:05:51.309Z,1029.45
2018-01-10T03:06:51.294Z,1029.45
2018-01-10T03:07:51.278Z,1029.45
2018-01-10T03:08:51.262Z,1029.47
2018-01-10T03:09:51.250Z,1029.44
2018-01-10T03:10:51.235Z,1029.43
2018-01-10T03:11:51.218Z,1029.44
2018-01-10T03:12:51.204Z,1029.36
2018-01-10T03:13:51.197Z,1029.35
2018-01-10T03:14:51.178Z,1029.3
2018-01-10T03:15:51.164Z,1029.31
2018-01-10T03:16:51.147Z,1029.29
2018-01-10T03:17:51.142Z,1029.35
2018-01-10T03:18:51.120Z,1029.34
2018-01-10T03:19:51.103Z,1029.39
2018-01-10T03:20:51.089Z,1029.43
2018-01-10T03:21:51.079Z,1029.48
2018-01-10T03:22:51.062Z,1029.51
2018-01-10T03:23:51.045Z,1029.51
2018-01-10T03:24:51.031Z,1029.52
2018-01-10T03:25:51.017Z,1029.53
2018-01-10T03:26:51.002Z,1029.55
2018-01-10T03:27:50.991Z,1029.6
2018-01-10T03:28:50.976Z,1029.6
2018-01-10T03:29:50.960Z,1029.59
2018-01-10T03:30:50.946Z,1029.56
2018-01-10T03:31:50.931Z,1029.52
2018-01-10T03:32:50.916Z,1029.56
2018-01-10T03:33:50.902Z,1029.53
2018-01-10T03:34:50.888Z,1029.6
2018-01-10T03:35:50.873Z,1029.59
2018-01-10T03:36:50.861Z,1029.62
2018-01-10T03:37:50.848Z,1029.62
2018-01-10T03:38:50.834Z,1029.61
2018-01-10T03:39:50.815Z,1029.63
2018-01-10T03:40:50.802Z,1029.59
2018-01-10T03:41:50.788Z,1029.56
2018-01-10T03:42:50.775Z,1029.58
2018-01-10T03:43:50.759Z,1029.56
2018-01-10T03:44:50.743Z,1029.55
2018-01-10T03:45:50.729Z,1029.54
2018-01-10T03:46:50.714Z,1029.54
2018-01-10T03:47:50.700Z,1029.53
2018-01-10T03:48:50.687Z,1029.56
2018-01-10T03:49:50.675Z,1029.57
2018-01-10T03:50:50.657Z,1029.57
2018-01-10T03:51:50.643Z,1029.59
2018-01-10T03:52:50.631Z,1029.59
2018-01-10T03:53:50.616Z,1029.54
2018-01-10T03:54:50.599Z,1029.53
2018-01-10T03:55:50.588Z,1029.51
2018-01-10T03:56:50.571Z,1029.47
2018-01-10T03:57:50.560Z,1029.48
2018-01-10T03:58:50.544Z,1029.45
2018-01-10T03:59:50.527Z,1029.47
2018-01-10T04:00:50.514Z,1029.45
2018-01-10T04:01:50.501Z,1029.49
2018-01-10T04:02:50.485Z,1029.52
2018-01-10T04:03:50.471Z,1029.57
2018-01-10T04:04:50.456Z,1029.56
2018-01-10T04:05:50.441Z,1029.6
2018-01-10T04:06:50.427Z,1029.62
2018-01-10T04:07:50.429Z,1029.6
2018-01-10T04:08:50.398Z,1029.6
2018-01-10T04:09:50.386Z,1029.58
2018-01-10T04:10:50.375Z,1029.54
2018-01-10T04:11:50.356Z,1029.58
2018-01-10T04:12:50.340Z,1029.54
2018-01-10T04:13:50.325Z,1029.56
2018-01-10T04:14:50.311Z,1029.55
2018-01-10T04:15:50.300Z,1029.58
2018-01-10T04:16:50.282Z,1029.56
2018-01-10T04:17:50.271Z,1029.58
2018-01-10T04:18:50.257Z,1029.55
2018-01-10T04:19:50.242Z,1029.51
2018-01-10T04:20:50.224Z,1029.49
2018-01-10T04:21:50.214Z,1029.46
2018-01-10T04:22:50.195Z,1029.45
2018-01-10T04:23:50.183Z,1029.42
2018-01-10T04:24:50.166Z,1029.39
2018-01-10T04:25:50.155Z,1029.42
2018-01-10T04:26:50.140Z,1029.42
2018-01-10T04:27:50.126Z,1029.41
2018-01-10T04:28:50.109Z,1029.38
2018-01-10T04:29:50.098Z,1029.35
2018-01-10T04:30:50.079Z,1029.27
2018-01-10T04:31:50.069Z,1029.32
2018-01-10T04:32:50.052Z,1029.29
2018-01-10T04:33:50.040Z,1029.28
2018-01-10T04:34:50.023Z,1029.28
2018-01-10T04:35:50.011Z,1029.27
2018-01-10T04:36:49.998Z,1029.29
2018-01-10T04:37:49.979Z,1029.28
2018-01-10T04:38:49.969Z,1029.29
2018-01-10T04:39:49.954Z,1029.31
2018-01-10T04:40:49.938Z,1029.3
2018-01-10T04:41:49.922Z,1029.3
2018-01-10T04:42:49.909Z,1029.32
2018-01-10T04:43:49.903Z,1029.35
2018-01-10T04:44:49.882Z,1029.32
2018-01-10T04:45:49.868Z,1029.31
2018-01-10T04:46:49.851Z,1029.3
2018-01-10T04:47:49.841Z,1029.31
2018-01-10T04:48:49.823Z,1029.25
2018-01-10T04:49:49.812Z,1029.26
2018-01-10T04:50:49.798Z,1029.22
2018-01-10T04:51:49.784Z,1029.21
2018-01-10T04:52:49.766Z,1029.18
2018-01-10T04:53:49.753Z,1029.15
2018-01-10T04:54:49.738Z,1029.14
2018-01-10T04:55:49.723Z,1029.07
2018-01-10T04:56:49.710Z,1029.05
2018-01-10T04:57:49.695Z,1029.03
2018-01-10T04:58:49.686Z,1028.97
2018-01-10T04:59:49.669Z,1028.95
2018-01-10T05:00:49.656Z,1028.93
2018-01-10T05:01:49.638Z,1028.93
2018-01-10T05:02:49.627Z,1028.93
2018-01-10T05:03:49.610Z,1028.96
2018-01-10T05:04:49.599Z,1028.97
2018-01-10T05:05:49.582Z,1028.98
2018-01-10T05:06:49.570Z,1029.02
2018-01-10T05:07:49.556Z,1029.02
2018-01-10T05:08:49.539Z,1029.06
2018-01-10T05:09:49.526Z,1029.05
2018-01-10T05:10:49.510Z,1029.09
2018-01-10T05:11:49.498Z,1029.07
2018-01-10T05:12:49.483Z,1029.09
2018-01-10T05:13:49.468Z,1029.14
2018-01-10T05:14:49.457Z,1029.1
2018-01-10T05:15:49.444Z,1029.1
2018-01-10T05:16:49.426Z,1029.11
2018-01-10T05:17:49.411Z,1029.13
2018-01-10T05:18:49.401Z,1029.14
2018-01-10T05:19:49.386Z,1029.15
2018-01-10T05:20:49.371Z,1029.17
2018-01-10T05:21:49.370Z,1029.15
2018-01-10T05:22:49.344Z,1029.13
2018-01-10T05:23:49.336Z,1029.13
2018-01-10T05:24:49.313Z,1029.1
2018-01-10T05:25:49.299Z,1029.11
2018-01-10T05:26:49.285Z,1029.1
2018-01-10T05:27:49.274Z,1029.07
2018-01-10T05:28:49.255Z,1029.03
2018-01-10T05:29:49.243Z,1029.09
2018-01-10T05:30:49.229Z,1029.07
2018-01-10T05:31:49.214Z,1029.07
2018-01-10T05:32:49.199Z,1029.06
2018-01-10T05:33:49.186Z,1029.08
2018-01-10T05:34:49.172Z,1029.08
2018-01-10T05:35:49.161Z,1029.06
2018-01-10T05:36:49.144Z,1029.03
2018-01-10T05:37:49.134Z,1029.02
2018-01-10T05:38:49.117Z,1028.98
2018-01-10T05:39:49.104Z,1028.98
2018-01-10T05:40:49.088Z,1029.01
2018-01-10T05:41:49.076Z,1028.99
2018-01-10T05:42:49.061Z,1029
2018-01-10T05:43:49.048Z,1029.08
2018-01-10T05:44:49.034Z,1029.14
2018-01-10T05:45:49.019Z,1029.17
2018-01-10T05:46:49.002Z,1029.18
2018-01-10T05:47:48.989Z,1029.2
2018-01-10T05:48:48.978Z,1029.21
2018-01-10T05:49:48.961Z,1029.27
2018-01-10T05:50:48.946Z,1029.27
2018-01-10T05:51:48.938Z,1029.35
2018-01-10T05:52:48.919Z,1029.41
2018-01-10T05:53:48.907Z,1029.41
2018-01-10T05:54:48.893Z,1029.4
2018-01-10T05:55:48.879Z,1029.36
2018-01-10T05:56:48.863Z,1029.31
2018-01-10T05:57:48.849Z,1029.31
2018-01-10T05:58:48.833Z,1029.29
2018-01-10T05:59:48.819Z,1029.28
2018-01-10T06:00:48.805Z,1029.33
2018-01-10T06:01:48.796Z,1029.36
2018-01-10T06:02:48.779Z,1029.35
2018-01-10T06:03:48.762Z,1029.34
2018-01-10T06:04:48.750Z,1029.37
2018-01-10T06:05:48.737Z,1029.37
2018-01-10T06:06:48.722Z,1029.4
2018-01-10T06:07:48.708Z,1029.43
2018-01-10T06:08:48.690Z,1029.54
2018-01-10T06:09:48.680Z,1029.61
2018-01-10T06:10:48.663Z,1029.6
2018-01-10T06:11:48.650Z,1029.6
2018-01-10T06:12:48.634Z,1029.56
2018-01-10T06:13:48.620Z,1029.49
2018-01-10T06:14:48.607Z,1029.47
2018-01-10T06:15:48.591Z,1029.46
2018-01-10T06:16:48.576Z,1029.41
2018-01-10T06:17:48.562Z,1029.4
2018-01-10T06:18:48.548Z,1029.38
2018-01-10T06:19:48.533Z,1029.43
2018-01-10T06:20:48.522Z,1029.48
2018-01-10T06:21:48.505Z,1029.52
2018-01-10T06:22:48.491Z,1029.52
2018-01-10T06:23:48.476Z,1029.47
2018-01-10T06:24:48.461Z,1029.43
2018-01-10T06:25:48.448Z,1029.39
2018-01-10T06:26:48.437Z,1029.39
2018-01-10T06:27:48.419Z,1029.35
2018-01-10T06:28:48.404Z,1029.24
2018-01-10T06:29:48.393Z,1029.22
2018-01-10T06:30:48.378Z,1029.22
2018-01-10T06:31:48.361Z,1029.25
2018-01-10T06:32:48.348Z,1029.27
2018-01-10T06:33:48.333Z,1029.27
2018-01-10T06:34:48.318Z,1029.32
2018-01-10T06:35:48.304Z,1029.31
2018-01-10T06:36:48.292Z,1029.37
2018-01-10T06:37:48.277Z,1029.33
2018-01-10T06:38:48.261Z,1029.29
2018-01-10T06:39:48.248Z,1029.34
2018-01-10T06:40:48.233Z,1029.32
2018-01-10T06:41:48.218Z,1029.28
2018-01-10T06:42:48.206Z,1029.26
2018-01-10T06:43:48.190Z,1029.25
2018-01-10T06:44:48.176Z,1029.24
2018-01-10T06:45:48.161Z,1029.23
2018-01-10T06:46:48.146Z,1029.17
2018-01-10T06:47:48.137Z,1029.18
2018-01-10T06:48:48.119Z,1029.17
2018-01-10T06:49:48.106Z,1029.17
2018-01-10T06:50:48.093Z,1029.17
2018-01-10T06:51:48.076Z,1029.18
2018-01-10T06:52:48.062Z,1029.17
2018-01-10T06:53:48.050Z,1029.12
2018-01-10T06:54:48.034Z,1029.12
2018-01-10T06:55:48.020Z,1029.13
2018-01-10T06:56:48.009Z,1029.2
2018-01-10T06:57:47.992Z,1029.18
2018-01-10T06:58:47.978Z,1029.13
2018-01-10T06:59:47.967Z,1029.2
2018-01-10T07:00:47.949Z,1029.19
2018-01-10T07:01:47.938Z,1029.27
2018-01-10T07:02:47.923Z,1029.29
2018-01-10T07:03:47.906Z,1029.22
2018-01-10T07:04:47.893Z,1029.18
2018-01-10T07:05:47.879Z,1029.15
2018-01-10T07:06:47.872Z,1029.14
2018-01-10T07:07:47.852Z,1029.1
2018-01-10T07:08:47.839Z,1029.06
2018-01-10T07:09:47.823Z,1029.02
2018-01-10T07:10:47.811Z,1029.04
2018-01-10T07:11:47.795Z,1029.02
2018-01-10T07:12:47.781Z,1029
2018-01-10T07:13:47.771Z,1028.96
2018-01-10T07:14:47.755Z,1028.93
2018-01-10T07:15:47.739Z,1028.94
2018-01-10T07:16:47.729Z,1028.91
2018-01-10T07:17:47.716Z,1028.88
2018-01-10T07:18:47.701Z,1028.82
2018-01-10T07:19:47.691Z,1028.76
2018-01-10T07:20:47.669Z,1028.76
2018-01-10T07:21:47.658Z,1028.81
2018-01-10T07:22:47.641Z,1028.8
2018-01-10T07:23:47.646Z,1028.86
2018-01-10T07:24:47.616Z,1028.88
2018-01-10T07:25:47.600Z,1028.94
2018-01-10T07:26:47.586Z,1028.96
2018-01-10T07:27:47.576Z,1029
2018-01-10T07:28:47.561Z,1029
2018-01-10T07:29:47.544Z,1029.06
2018-01-10T07:30:47.532Z,1029.04
2018-01-10T07:31:47.517Z,1029.07
2018-01-10T07:32:47.505Z,1029.06
2018-01-10T07:33:47.492Z,1029.06
2018-01-10T07:34:47.475Z,1029.13
2018-01-10T07:35:47.465Z,1029.18
2018-01-10T07:36:47.450Z,1029.19
2018-01-10T07:37:47.435Z,1029.19
2018-01-10T07:38:47.422Z,1029.29
2018-01-10T07:39:47.418Z,1029.4
2018-01-10T07:40:47.392Z,1029.48
2018-01-10T07:41:47.382Z,1029.56
2018-01-10T07:42:47.369Z,1029.61
2018-01-10T07:43:47.350Z,1029.67
2018-01-10T07:44:47.339Z,1029.68
2018-01-10T07:45:47.323Z,1029.66
2018-01-10T07:46:47.310Z,1029.66
2018-01-10T07:47:47.314Z,1029.64
2018-01-10T07:48:47.282Z,1029.64
2018-01-10T07:49:47.267Z,1029.6
2018-01-10T07:50:47.256Z,1029.56
2018-01-10T07:51:47.239Z,1029.55
2018-01-10T07:52:47.225Z,1029.49
2018-01-10T07:53:47.215Z,1029.47
2018-01-10T07:54:47.197Z,1029.46
2018-01-10T07:55:47.184Z,1029.52
2018-01-10T07:56:47.171Z,1029.49
2018-01-10T07:57:47.155Z,1029.44
2018-01-10T07:58:47.141Z,1029.42
2018-01-10T07:59:47.127Z,1029.41
2018-01-10T08:00:47.113Z,1029.42
2018-01-10T08:01:47.100Z,1029.41
2018-01-10T08:02:47.085Z,1029.36
2018-01-10T08:03:47.072Z,1029.37
2018-01-10T08:04:47.058Z,1029.36
2018-01-10T08:05:47.043Z,1029.36
2018-01-10T08:06:47.038Z,1029.32
2018-01-10T08:07:47.018Z,1029.3
2018-01-10T08:08:47.002Z,1029.27
2018-01-10T08:09:46.991Z,1029.26
2018-01-10T08:10:46.980Z,1029.23
2018-01-10T08:11:46.964Z,1029.23
2018-01-10T08:12:46.955Z,1029.2
2018-01-10T08:13:46.939Z,1029.15
2018-01-10T08:14:46.920Z,1029.12
2018-01-10T08:15:46.909Z,1029.1
2018-01-10T08:16:46.899Z,1029.13
2018-01-10T08:17:46.877Z,1029.13
2018-01-10T08:18:46.881Z,1029.11
2018-01-10T08:19:46.854Z,1029.16
2018-01-10T08:20:46.841Z,1029.27
2018-01-10T08:21:46.823Z,1029.37
2018-01-10T08:22:46.812Z,1029.4
2018-01-10T08:23:46.797Z,1029.45
2018-01-10T08:24:46.781Z,1029.52
2018-01-10T08:25:46.769Z,1029.54
2018-01-10T08:26:46.756Z,1029.62
2018-01-10T08:27:46.752Z,1029.64
2018-01-10T08:28:46.728Z,1029.65
2018-01-10T08:29:46.713Z,1029.59
2018-01-10T08:30:46.704Z,1029.54
2018-01-10T08:31:46.684Z,1029.57
2018-01-10T08:32:46.675Z,1029.53
2018-01-10T08:33:46.667Z,1029.48
2018-01-10T08:34:46.675Z,1029.47
2018-01-10T08:35:46.634Z,1029.5
2018-01-10T08:36:46.616Z,1029.58
2018-01-10T08:37:46.603Z,1029.53
2018-01-10T08:38:46.588Z,1029.51
2018-01-10T08:39:46.575Z,1029.5
2018-01-10T08:40:46.582Z,1029.46
2018-01-10T08:41:46.552Z,1029.51
2018-01-10T08:42:46.537Z,1029.46
2018-01-10T08:43:46.521Z,1029.48
2018-01-10T08:44:46.521Z,1029.46
2018-01-10T08:45:46.513Z,1029.44
2018-01-10T08:46:46.479Z,1029.36
2018-01-10T08:47:46.478Z,1029.38
2018-01-10T08:48:46.453Z,1029.3
2018-01-10T08:49:46.438Z,1029.26
2018-01-10T08:50:46.426Z,1029.24
2018-01-10T08:51:46.410Z,1029.19
2018-01-10T08:52:46.397Z,1029.15
2018-01-10T08:53:46.385Z,1029.11
2018-01-10T08:54:46.372Z,1029.1
2018-01-10T08:55:46.356Z,1029.12
2018-01-10T08:56:46.341Z,1029.15
2018-01-10T08:57:46.344Z,1029.17
2018-01-10T08:58:46.314Z,1029.17
2018-01-10T08:59:46.304Z,1029.15
2018-01-10T09:00:46.288Z,1029.11
2018-01-10T09:01:46.276Z,1029
2018-01-10T09:02:46.263Z,1028.96
2018-01-10T09:03:46.260Z,1028.91
2018-01-10T09:04:46.234Z,1028.94
2018-01-10T09:05:46.219Z,1028.88
2018-01-10T09:06:46.206Z,1028.84
2018-01-10T09:07:46.193Z,1028.84
2018-01-10T09:08:46.178Z,1028.82
2018-01-10T09:09:46.165Z,1028.83
2018-01-10T09:10:46.162Z,1028.83
2018-01-10T09:11:46.139Z,1028.88
2018-01-10T09:12:46.124Z,1028.86
2018-01-10T09:13:46.127Z,1028.88
2018-01-10T09:14:46.103Z,1028.9
2018-01-10T09:15:46.100Z,1028.9
2018-01-10T09:16:46.076Z,1028.85
2018-01-10T09:17:46.058Z,1028.85
2018-01-10T09:18:46.046Z,1028.8
2018-01-10T09:19:46.030Z,1028.83
2018-01-10T09:20:46.020Z,1028.78
2018-01-10T09:21:46.033Z,1028.72
2018-01-10T09:22:46.001Z,1028.69
2018-01-10T09:23:45.984Z,1028.63
2018-01-10T09:24:45.967Z,1028.7
2018-01-10T09:25:45.951Z,1028.7
2018-01-10T09:26:45.977Z,1028.66
2018-01-10T09:27:45.940Z,1028.66
2018-01-10T09:28:45.911Z,1028.59
2018-01-10T09:29:45.917Z,1028.6
2018-01-10T09:30:45.884Z,1028.54
2018-01-10T09:31:45.871Z,1028.53
2018-01-10T09:32:45.883Z,1028.5
2018-01-10T09:33:45.845Z,1028.53
2018-01-10T09:34:45.833Z,1028.49
2018-01-10T09:35:45.836Z,1028.48
2018-01-10T09:36:45.808Z,1028.52
2018-01-10T09:37:45.791Z,1028.52
2018-01-10T09:38:45.778Z,1028.53
2018-01-10T09:39:45.772Z,1028.45
2018-01-10T09:40:45.753Z,1028.39
2018-01-10T09:41:45.756Z,1028.36
2018-01-10T09:42:45.728Z,1028.28
2018-01-10T09:43:45.717Z,1028.19
2018-01-10T09:44:45.705Z,1028.09
2018-01-10T09:45:45.688Z,1027.99
2018-01-10T09:46:45.678Z,1027.96
2018-01-10T09:47:45.664Z,1027.85
2018-01-10T09:48:45.667Z,1027.84
2018-01-10T09:49:45.647Z,1027.77
2018-01-10T09:50:45.627Z,1027.77
2018-01-10T09:51:45.615Z,1027.74
2018-01-10T09:52:45.599Z,1027.78
2018-01-10T09:53:45.589Z,1027.79
2018-01-10T09:54:45.583Z,1027.82
2018-01-10T09:55:45.560Z,1027.85
2018-01-10T09:56:45.551Z,1027.89
2018-01-10T09:57:45.553Z,1027.85
2018-01-10T09:58:45.523Z,1027.82
2018-01-10T09:59:45.510Z,1027.88
2018-01-10T10:00:45.525Z,1027.92
2018-01-10T10:01:45.492Z,1027.9
2018-01-10T10:02:45.475Z,1027.92
2018-01-10T10:03:45.462Z,1027.98
2018-01-10T10:04:45.471Z,1028.01
2018-01-10T10:05:45.444Z,1027.99
2018-01-10T10:06:45.424Z,1028
2018-01-10T10:07:45.410Z,1027.94
2018-01-10T10:08:45.400Z,1027.87
2018-01-10T10:09:45.389Z,1027.81
2018-01-10T10:10:45.380Z,1027.8
2018-01-10T10:11:45.360Z,1027.82
2018-01-10T10:12:45.348Z,1027.81
2018-01-10T10:13:45.336Z,1027.75
2018-01-10T10:14:45.327Z,1027.7
2018-01-10T10:15:45.314Z,1027.7
2018-01-10T10:16:45.314Z,1027.68
2018-01-10T10:17:45.287Z,1027.61
2018-01-10T10:18:45.287Z,1027.56
2018-01-10T10:19:45.263Z,1027.51
2018-01-10T10:20:45.263Z,1027.42
2018-01-10T10:21:45.238Z,1027.4
2018-01-10T10:22:45.230Z,1027.32
2018-01-10T10:23:45.223Z,1027.3
2018-01-10T10:24:45.208Z,1027.23
2018-01-10T10:25:45.201Z,1027.18
2018-01-10T10:26:45.198Z,1027.07
2018-01-10T10:27:45.187Z,1027
2018-01-10T10:28:45.158Z,1026.91
2018-01-10T10:29:45.158Z,1026.89
2018-01-10T10:30:45.134Z,1026.8
2018-01-10T10:31:45.129Z,1026.79
2018-01-10T10:32:45.145Z,1026.72
2018-01-10T10:33:45.109Z,1026.63
2018-01-10T10:34:45.086Z,1026.52
2018-01-10T10:35:45.087Z,1026.48
2018-01-10T10:36:45.076Z,1026.39
2018-01-10T10:37:45.065Z,1026.38
2018-01-10T10:38:45.040Z,1026.35
2018-01-10T10:39:45.026Z,1026.37
2018-01-10T10:40:45.023Z,1026.36
2018-01-10T10:41:45.000Z,1026.32
2018-01-10T10:42:44.997Z,1026.29
2018-01-10T10:43:44.977Z,1026.3
2018-01-10T10:44:44.995Z,1026.34
2018-01-10T10:45:44.957Z,1026.32
2018-01-10T10:46:44.960Z,1026.35
2018-01-10T10:47:44.931Z,1026.3
2018-01-10T10:48:44.922Z,1026.31
2018-01-10T10:49:44.915Z,1026.38
2018-01-10T10:50:44.900Z,1026.42
2018-01-10T10:51:44.887Z,1026.39
2018-01-10T10:52:44.876Z,1026.36
2018-01-10T10:53:44.862Z,1026.37
2018-01-10T10:54:44.858Z,1026.31
2018-01-10T10:55:44.840Z,1026.26
2018-01-10T10:56:44.832Z,1026.24
2018-01-10T10:57:44.817Z,1026.2
2018-01-10T10:58:44.806Z,1026.19
2018-01-10T10:59:44.804Z,1026.16
2018-01-10T11:00:44.787Z,1026.18
2018-01-10T11:01:44.775Z,1026.17
2018-01-10T11:02:44.760Z,1026.17
2018-01-10T11:03:44.749Z,1026.17
2018-01-10T11:04:44.737Z,1026.2
2018-01-10T11:05:44.729Z,1026.12
2018-01-10T11:06:44.715Z,1026.05
2018-01-10T11:07:44.705Z,1025.98
2018-01-10T11:08:44.692Z,1025.92
2018-01-10T11:09:44.681Z,1025.87
2018-01-10T11:10:44.671Z,1025.85
2018-01-10T11:11:44.662Z,1025.87
2018-01-10T11:12:44.650Z,1025.84
2018-01-10T11:13:44.662Z,1025.83
2018-01-10T11:14:44.640Z,1025.78
2018-01-10T11:15:44.620Z,1025.69
2018-01-10T11:16:44.604Z,1025.65
2018-01-10T11:17:44.597Z,1025.64
2018-01-10T11:18:44.596Z,1025.53
2018-01-10T11:19:44.580Z,1025.5
2018-01-10T11:20:44.560Z,1025.45
2018-01-10T11:21:44.548Z,1025.45
2018-01-10T11:22:44.541Z,1025.47
2018-01-10T11:23:44.525Z,1025.44
2018-01-10T11:24:44.516Z,1025.46
2018-01-10T11:25:44.508Z,1025.4
2018-01-10T11:26:44.544Z,1025.4
2018-01-10T11:27:44.486Z,1025.36
2018-01-10T11:28:44.487Z,1025.4
2018-01-10T11:29:44.462Z,1025.36
2018-01-10T11:30:44.452Z,1025.31
2018-01-10T11:31:44.440Z,1025.28
2018-01-10T11:32:44.434Z,1025.27
2018-01-10T11:33:44.420Z,1025.22
2018-01-10T11:34:44.413Z,1025.25
2018-01-10T11:35:44.404Z,1025.27
2018-01-10T11:36:44.401Z,1025.39
2018-01-10T11:37:44.377Z,1025.52
2018-01-10T11:38:44.369Z,1025.6
2018-01-10T11:39:44.362Z,1025.59
2018-01-10T11:40:44.346Z,1025.55
2018-01-10T11:41:44.335Z,1025.49
2018-01-10T11:42:44.325Z,1025.46
2018-01-10T11:43:44.316Z,1025.42
2018-01-10T11:44:44.306Z,1025.37
2018-01-10T11:45:44.347Z,1025.28
2018-01-10T11:46:44.282Z,1025.2
2018-01-10T11:47:44.275Z,1025.12
2018-01-10T11:48:44.262Z,1025.02
2018-01-10T11:49:44.251Z,1024.9
2018-01-10T11:50:44.249Z,1024.88
2018-01-10T11:51:44.230Z,1024.8
2018-01-10T11:52:44.219Z,1024.84
2018-01-10T11:53:44.211Z,1024.81
2018-01-10T11:54:44.208Z,1024.89
2018-01-10T11:55:44.192Z,1024.92
2018-01-10T11:56:44.205Z,1025.01
2018-01-10T11:57:44.173Z,1025.07
2018-01-10T11:58:44.164Z,1025
2018-01-10T11:59:44.158Z,1024.98
2018-01-10T12:00:44.138Z,1024.96
2018-01-10T12:01:44.129Z,1024.93
2018-01-10T12:02:44.128Z,1024.93
2018-01-10T12:03:44.108Z,1024.85
2018-01-10T12:04:44.098Z,1024.91
2018-01-10T12:05:44.091Z,1024.98
2018-01-10T12:06:44.077Z,1025.09
2018-01-10T12:07:44.068Z,1025.15
2018-01-10T12:08:44.060Z,1025.2
2018-01-10T12:09:44.055Z,1025.2